sensor_id;sensor_type;location;lat;lon;timestamp;temperature;humidity
21637;DHT22;10980;49.596;6.142;2022-12-18T00:02:31;-9.50;99.90
21637;DHT22;10980;49.596;6.142;2022-12-18T00:06:03;-9.50;99.90
21637;DHT22;10980;49.596;6.142;2022-12-18T00:09:27;-9.60;99.90
21637;DHT22;10980;49.596;6.142;2022-12-18T00:13:02;-9.50;99.90
21637;DHT22;10980;49.596;6.142;2022-12-18T00:16:33;-9.40;99.90
21637;DHT22;10980;49.596;6.142;2022-12-18T00:19:58;-9.40;99.90
21637;DHT22;10980;49.596;6.142;2022-12-18T00:23:28;-9.50;99.90
21637;DHT22;10980;49.596;6.142;2022-12-18T00:26:51;-9.50;99.90
21637;DHT22;10980;49.596;6.142;2022-12-18T00:30:12;-9.60;99.90
21637;DHT22;10980;49.596;6.142;2022-12-18T00:33:35;-9.50;99.90
21637;DHT22;10980;49.596;6.142;2022-12-18T00:36:57;-9.60;99.90
21637;DHT22;10980;49.596;6.142;2022-12-18T00:40:29;-9.40;99.90
21637;DHT22;10980;49.596;6.142;2022-12-18T00:43:50;-9.40;99.90
21637;DHT22;10980;49.596;6.142;2022-12-18T00:47:12;-9.30;99.90
21637;DHT22;10980;49.596;6.142;2022-12-18T00:50:50;-9.10;99.90
21637;DHT22;10980;49.596;6.142;2022-12-18T00:54:18;-9.00;99.90
21637;DHT22;10980;49.596;6.142;2022-12-18T00:57:41;-9.20;99.90
21637;DHT22;10980;49.596;6.142;2022-12-18T01:01:06;-9.20;99.90
21637;DHT22;10980;49.596;6.142;2022-12-18T01:04:31;-9.40;99.90
21637;DHT22;10980;49.596;6.142;2022-12-18T01:08:01;-9.50;99.90
21637;DHT22;10980;49.596;6.142;2022-12-18T01:11:39;-9.60;99.90
21637;DHT22;10980;49.596;6.142;2022-12-18T01:15:02;-9.50;99.90
21637;DHT22;10980;49.596;6.142;2022-12-18T01:18:44;-9.50;99.90
21637;DHT22;10980;49.596;6.142;2022-12-18T01:22:06;-9.60;99.90
21637;DHT22;10980;49.596;6.142;2022-12-18T01:25:31;-9.70;99.90
21637;DHT22;10980;49.596;6.142;2022-12-18T01:28:57;-9.80;99.90
21637;DHT22;10980;49.596;6.142;2022-12-18T01:32:29;-9.80;99.90
21637;DHT22;10980;49.596;6.142;2022-12-18T01:35:59;-9.70;99.90
21637;DHT22;10980;49.596;6.142;2022-12-18T01:39:22;-9.80;99.90
21637;DHT22;10980;49.596;6.142;2022-12-18T01:42:44;-9.80;99.90
21637;DHT22;10980;49.596;6.142;2022-12-18T01:46:15;-9.90;99.90
21637;DHT22;10980;49.596;6.142;2022-12-18T01:49:39;-10.00;99.90
21637;DHT22;10980;49.596;6.142;2022-12-18T01:53:11;-10.00;99.90
21637;DHT22;10980;49.596;6.142;2022-12-18T01:56:36;-10.00;99.90
21637;DHT22;10980;49.596;6.142;2022-12-18T02:00:08;-10.00;99.90
21637;DHT22;10980;49.596;6.142;2022-12-18T02:03:45;-10.00;99.90
21637;DHT22;10980;49.596;6.142;2022-12-18T02:18:40;-10.10;99.90
21637;DHT22;10980;49.596;6.142;2022-12-18T02:30:08;-10.30;99.90
21637;DHT22;10980;49.596;6.142;2022-12-18T02:33:33;-10.40;99.90
21637;DHT22;10980;49.596;6.142;2022-12-18T02:37:05;-10.50;99.90
21637;DHT22;10980;49.596;6.142;2022-12-18T02:40:35;-10.40;99.90
21637;DHT22;10980;49.596;6.142;2022-12-18T02:44:18;-10.40;99.90
21637;DHT22;10980;49.596;6.142;2022-12-18T02:47:43;-10.50;99.90
21637;DHT22;10980;49.596;6.142;2022-12-18T02:51:33;-10.50;99.90
21637;DHT22;10980;49.596;6.142;2022-12-18T02:55:15;-10.60;99.90
21637;DHT22;10980;49.596;6.142;2022-12-18T02:59:02;-10.50;99.90
21637;DHT22;10980;49.596;6.142;2022-12-18T03:06:43;-10.30;99.90
21637;DHT22;10980;49.596;6.142;2022-12-18T03:10:14;-10.20;99.90
21637;DHT22;10980;49.596;6.142;2022-12-18T03:13:47;-10.30;99.90
21637;DHT22;10980;49.596;6.142;2022-12-18T03:17:17;-10.00;99.90
21637;DHT22;10980;49.596;6.142;2022-12-18T03:20:47;-9.90;99.90
21637;DHT22;10980;49.596;6.142;2022-12-18T03:24:26;-10.10;99.90
21637;DHT22;10980;49.596;6.142;2022-12-18T03:27:53;-10.00;99.90
21637;DHT22;10980;49.596;6.142;2022-12-18T03:31:23;-9.90;99.90
21637;DHT22;10980;49.596;6.142;2022-12-18T03:34:49;-10.20;99.90
21637;DHT22;10980;49.596;6.142;2022-12-18T03:38:17;-10.20;99.90
21637;DHT22;10980;49.596;6.142;2022-12-18T03:42:15;-10.30;99.90
21637;DHT22;10980;49.596;6.142;2022-12-18T03:45:54;-10.40;99.90
21637;DHT22;10980;49.596;6.142;2022-12-18T03:57:07;-10.50;99.90
21637;DHT22;10980;49.596;6.142;2022-12-18T04:00:34;-10.70;99.90
21637;DHT22;10980;49.596;6.142;2022-12-18T04:04:02;-10.60;99.90
21637;DHT22;10980;49.596;6.142;2022-12-18T04:07:32;-10.60;99.90
21637;DHT22;10980;49.596;6.142;2022-12-18T04:11:04;-10.60;99.90
21637;DHT22;10980;49.596;6.142;2022-12-18T04:14:27;-10.60;99.90
21637;DHT22;10980;49.596;6.142;2022-12-18T04:17:50;-10.60;99.90
21637;DHT22;10980;49.596;6.142;2022-12-18T04:21:16;-10.70;99.90
21637;DHT22;10980;49.596;6.142;2022-12-18T04:24:39;-10.70;99.90
21637;DHT22;10980;49.596;6.142;2022-12-18T04:28:12;-10.70;99.90
21637;DHT22;10980;49.596;6.142;2022-12-18T04:31:40;-10.60;99.90
21637;DHT22;10980;49.596;6.142;2022-12-18T04:35:03;-10.70;99.90
21637;DHT22;10980;49.596;6.142;2022-12-18T04:38:29;-10.80;99.90
21637;DHT22;10980;49.596;6.142;2022-12-18T04:42:08;-10.80;99.90
21637;DHT22;10980;49.596;6.142;2022-12-18T04:45:31;-10.80;99.90
21637;DHT22;10980;49.596;6.142;2022-12-18T04:48:55;-10.70;99.90
21637;DHT22;10980;49.596;6.142;2022-12-18T04:52:17;-10.50;99.90
21637;DHT22;10980;49.596;6.142;2022-12-18T04:55:39;-10.50;99.90
21637;DHT22;10980;49.596;6.142;2022-12-18T04:59:01;-10.50;99.90
21637;DHT22;10980;49.596;6.142;2022-12-18T05:02:23;-10.60;99.90
21637;DHT22;10980;49.596;6.142;2022-12-18T05:05:48;-10.60;99.90
21637;DHT22;10980;49.596;6.142;2022-12-18T05:09:11;-10.50;99.90
21637;DHT22;10980;49.596;6.142;2022-12-18T05:12:34;-10.40;99.90
21637;DHT22;10980;49.596;6.142;2022-12-18T05:16:17;-10.40;99.90
21637;DHT22;10980;49.596;6.142;2022-12-18T05:19:39;-10.40;99.90
21637;DHT22;10980;49.596;6.142;2022-12-18T05:23:00;-10.40;99.90
21637;DHT22;10980;49.596;6.142;2022-12-18T05:26:22;-10.40;99.90
21637;DHT22;10980;49.596;6.142;2022-12-18T05:29:44;-10.20;99.90
21637;DHT22;10980;49.596;6.142;2022-12-18T05:33:06;-10.10;99.90
21637;DHT22;10980;49.596;6.142;2022-12-18T05:36:29;-10.00;99.90
21637;DHT22;10980;49.596;6.142;2022-12-18T05:39:51;-9.90;99.90
21637;DHT22;10980;49.596;6.142;2022-12-18T05:43:13;-9.90;99.90
21637;DHT22;10980;49.596;6.142;2022-12-18T05:46:41;-10.00;99.90
21637;DHT22;10980;49.596;6.142;2022-12-18T05:50:04;-10.00;99.90
21637;DHT22;10980;49.596;6.142;2022-12-18T05:53:26;-10.10;99.90
21637;DHT22;10980;49.596;6.142;2022-12-18T05:56:59;-10.10;99.90
21637;DHT22;10980;49.596;6.142;2022-12-18T06:00:21;-10.10;99.90
21637;DHT22;10980;49.596;6.142;2022-12-18T06:03:43;-10.00;99.90
21637;DHT22;10980;49.596;6.142;2022-12-18T06:07:06;-10.00;99.90
21637;DHT22;10980;49.596;6.142;2022-12-18T06:10:28;-10.00;99.90
21637;DHT22;10980;49.596;6.142;2022-12-18T06:13:53;-10.20;99.90
21637;DHT22;10980;49.596;6.142;2022-12-18T06:17:32;-10.30;99.90
21637;DHT22;10980;49.596;6.142;2022-12-18T06:21:04;-10.30;99.90
21637;DHT22;10980;49.596;6.142;2022-12-18T06:24:32;-10.40;99.90
21637;DHT22;10980;49.596;6.142;2022-12-18T06:27:54;-10.20;99.90
21637;DHT22;10980;49.596;6.142;2022-12-18T06:31:16;-10.20;99.90
21637;DHT22;10980;49.596;6.142;2022-12-18T06:34:54;-10.10;99.90
21637;DHT22;10980;49.596;6.142;2022-12-18T06:38:17;-10.10;99.90
21637;DHT22;10980;49.596;6.142;2022-12-18T06:41:39;-10.00;99.90
21637;DHT22;10980;49.596;6.142;2022-12-18T06:45:02;-9.90;99.90
21637;DHT22;10980;49.596;6.142;2022-12-18T06:48:24;-9.90;99.90
21637;DHT22;10980;49.596;6.142;2022-12-18T06:51:46;-9.90;99.90
21637;DHT22;10980;49.596;6.142;2022-12-18T06:55:10;-9.90;99.90
21637;DHT22;10980;49.596;6.142;2022-12-18T06:58:39;-9.90;99.90
21637;DHT22;10980;49.596;6.142;2022-12-18T07:02:04;-9.80;99.90
21637;DHT22;10980;49.596;6.142;2022-12-18T07:05:26;-9.80;99.90
21637;DHT22;10980;49.596;6.142;2022-12-18T07:08:58;-9.70;99.90
21637;DHT22;10980;49.596;6.142;2022-12-18T07:12:22;-9.70;99.90
21637;DHT22;10980;49.596;6.142;2022-12-18T07:15:44;-9.50;99.90
21637;DHT22;10980;49.596;6.142;2022-12-18T07:19:24;-9.40;99.90
21637;DHT22;10980;49.596;6.142;2022-12-18T07:22:46;-9.40;99.90
21637;DHT22;10980;49.596;6.142;2022-12-18T07:26:23;-9.10;99.90
21637;DHT22;10980;49.596;6.142;2022-12-18T07:29:46;-8.90;99.90
21637;DHT22;10980;49.596;6.142;2022-12-18T07:33:09;-8.90;99.90
21637;DHT22;10980;49.596;6.142;2022-12-18T07:36:31;-8.90;99.90
21637;DHT22;10980;49.596;6.142;2022-12-18T07:39:58;-8.80;99.90
21637;DHT22;10980;49.596;6.142;2022-12-18T07:43:19;-8.80;99.90
21637;DHT22;10980;49.596;6.142;2022-12-18T07:46:41;-8.50;99.90
21637;DHT22;10980;49.596;6.142;2022-12-18T07:50:05;-8.50;99.90
21637;DHT22;10980;49.596;6.142;2022-12-18T07:53:28;-8.20;99.90
21637;DHT22;10980;49.596;6.142;2022-12-18T07:56:51;-8.20;99.90
21637;DHT22;10980;49.596;6.142;2022-12-18T08:00:13;-8.00;99.90
21637;DHT22;10980;49.596;6.142;2022-12-18T08:03:36;-7.80;99.90
21637;DHT22;10980;49.596;6.142;2022-12-18T08:06:59;-7.70;99.90
21637;DHT22;10980;49.596;6.142;2022-12-18T08:10:23;-7.70;99.90
21637;DHT22;10980;49.596;6.142;2022-12-18T08:13:45;-7.60;99.90
21637;DHT22;10980;49.596;6.142;2022-12-18T08:17:07;-7.40;99.90
21637;DHT22;10980;49.596;6.142;2022-12-18T08:20:29;-7.40;99.90
21637;DHT22;10980;49.596;6.142;2022-12-18T08:23:52;-7.40;99.90
21637;DHT22;10980;49.596;6.142;2022-12-18T08:27:16;-7.40;99.90
21637;DHT22;10980;49.596;6.142;2022-12-18T08:30:53;-7.30;99.90
21637;DHT22;10980;49.596;6.142;2022-12-18T08:34:16;-7.20;99.90
21637;DHT22;10980;49.596;6.142;2022-12-18T08:37:38;-7.10;99.90
21637;DHT22;10980;49.596;6.142;2022-12-18T08:41:06;-7.00;99.90
21637;DHT22;10980;49.596;6.142;2022-12-18T08:44:30;-6.90;99.90
21637;DHT22;10980;49.596;6.142;2022-12-18T08:48:03;-6.60;99.90
21637;DHT22;10980;49.596;6.142;2022-12-18T08:51:24;-6.50;99.90
21637;DHT22;10980;49.596;6.142;2022-12-18T08:54:46;-6.40;99.90
21637;DHT22;10980;49.596;6.142;2022-12-18T08:58:08;-6.30;99.90
21637;DHT22;10980;49.596;6.142;2022-12-18T09:01:30;-6.10;99.90
21637;DHT22;10980;49.596;6.142;2022-12-18T09:04:52;-6.10;99.90
21637;DHT22;10980;49.596;6.142;2022-12-18T09:08:18;-5.90;99.90
21637;DHT22;10980;49.596;6.142;2022-12-18T09:11:55;-5.80;99.90
21637;DHT22;10980;49.596;6.142;2022-12-18T09:15:19;-5.50;99.90
21637;DHT22;10980;49.596;6.142;2022-12-18T09:18:41;-5.30;99.90
21637;DHT22;10980;49.596;6.142;2022-12-18T09:22:05;-5.20;99.90
21637;DHT22;10980;49.596;6.142;2022-12-18T09:25:32;-5.00;99.90
21637;DHT22;10980;49.596;6.142;2022-12-18T09:28:57;-4.90;99.90
21637;DHT22;10980;49.596;6.142;2022-12-18T09:32:18;-4.80;99.90
21637;DHT22;10980;49.596;6.142;2022-12-18T09:35:44;-4.90;99.90
21637;DHT22;10980;49.596;6.142;2022-12-18T09:39:07;-4.90;99.90
21637;DHT22;10980;49.596;6.142;2022-12-18T09:42:32;-4.90;99.90
21637;DHT22;10980;49.596;6.142;2022-12-18T09:45:58;-4.90;99.90
21637;DHT22;10980;49.596;6.142;2022-12-18T09:49:38;-4.80;99.90
21637;DHT22;10980;49.596;6.142;2022-12-18T09:53:15;-5.00;99.90
21637;DHT22;10980;49.596;6.142;2022-12-18T09:57:01;-5.00;99.90
21637;DHT22;10980;49.596;6.142;2022-12-18T10:00:24;-4.70;99.90
21637;DHT22;10980;49.596;6.142;2022-12-18T10:03:57;-4.60;99.90
21637;DHT22;10980;49.596;6.142;2022-12-18T10:07:29;-4.50;99.90
21637;DHT22;10980;49.596;6.142;2022-12-18T10:11:25;-4.60;99.90
21637;DHT22;10980;49.596;6.142;2022-12-18T10:14:54;-4.50;99.90
21637;DHT22;10980;49.596;6.142;2022-12-18T10:26:18;-4.20;99.90
21637;DHT22;10980;49.596;6.142;2022-12-18T10:29:48;-4.20;99.90
21637;DHT22;10980;49.596;6.142;2022-12-18T10:33:13;-4.10;99.90
21637;DHT22;10980;49.596;6.142;2022-12-18T10:36:43;-4.00;99.90
21637;DHT22;10980;49.596;6.142;2022-12-18T10:40:11;-3.80;99.90
21637;DHT22;10980;49.596;6.142;2022-12-18T10:43:44;-3.80;99.90
21637;DHT22;10980;49.596;6.142;2022-12-18T10:47:13;-3.80;99.90
21637;DHT22;10980;49.596;6.142;2022-12-18T10:50:39;-3.90;99.90
21637;DHT22;10980;49.596;6.142;2022-12-18T10:54:39;-3.90;99.90
21637;DHT22;10980;49.596;6.142;2022-12-18T10:58:34;-3.90;99.90
21637;DHT22;10980;49.596;6.142;2022-12-18T11:01:57;-3.90;99.90
21637;DHT22;10980;49.596;6.142;2022-12-18T11:12:43;-4.00;99.90
21637;DHT22;10980;49.596;6.142;2022-12-18T11:16:06;-3.80;99.90
21637;DHT22;10980;49.596;6.142;2022-12-18T11:19:38;-3.60;99.90
21637;DHT22;10980;49.596;6.142;2022-12-18T11:23:12;-3.60;99.90
21637;DHT22;10980;49.596;6.142;2022-12-18T11:26:35;-3.70;99.90
21637;DHT22;10980;49.596;6.142;2022-12-18T11:30:22;-3.60;99.90
21637;DHT22;10980;49.596;6.142;2022-12-18T11:38:02;-3.30;99.90
21637;DHT22;10980;49.596;6.142;2022-12-18T11:41:49;-3.20;99.90
21637;DHT22;10980;49.596;6.142;2022-12-18T11:45:36;-3.10;99.90
21637;DHT22;10980;49.596;6.142;2022-12-18T11:49:28;-3.20;99.90
21637;DHT22;10980;49.596;6.142;2022-12-18T11:52:56;-3.10;99.90
21637;DHT22;10980;49.596;6.142;2022-12-18T11:56:41;-2.90;99.90
21637;DHT22;10980;49.596;6.142;2022-12-18T12:00:21;-3.00;99.90
21637;DHT22;10980;49.596;6.142;2022-12-18T12:04:15;-3.00;99.90
21637;DHT22;10980;49.596;6.142;2022-12-18T12:16:11;-2.80;99.90
21637;DHT22;10980;49.596;6.142;2022-12-18T12:23:43;-2.90;99.90
21637;DHT22;10980;49.596;6.142;2022-12-18T12:39:44;-2.50;99.90
21637;DHT22;10980;49.596;6.142;2022-12-18T12:47:00;-2.80;99.90
21637;DHT22;10980;49.596;6.142;2022-12-18T12:50:30;-2.80;99.90
21637;DHT22;10980;49.596;6.142;2022-12-18T12:53:57;-2.70;99.90
21637;DHT22;10980;49.596;6.142;2022-12-18T12:57:31;-2.70;99.90
21637;DHT22;10980;49.596;6.142;2022-12-18T13:01:12;-2.70;99.90
21637;DHT22;10980;49.596;6.142;2022-12-18T13:04:47;-2.60;99.90
21637;DHT22;10980;49.596;6.142;2022-12-18T13:08:27;-2.40;99.90
21637;DHT22;10980;49.596;6.142;2022-12-18T13:12:04;-2.30;99.90
21637;DHT22;10980;49.596;6.142;2022-12-18T13:16:07;-2.20;99.90
21637;DHT22;10980;49.596;6.142;2022-12-18T13:19:34;-2.30;99.90
21637;DHT22;10980;49.596;6.142;2022-12-18T13:22:58;-2.50;99.90
21637;DHT22;10980;49.596;6.142;2022-12-18T13:29:55;-2.80;99.90
21637;DHT22;10980;49.596;6.142;2022-12-18T13:36:50;-2.60;99.90
21637;DHT22;10980;49.596;6.142;2022-12-18T13:44:31;-2.80;99.90
21637;DHT22;10980;49.596;6.142;2022-12-18T13:48:23;-2.90;99.90
21637;DHT22;10980;49.596;6.142;2022-12-18T13:51:55;-2.90;99.90
21637;DHT22;10980;49.596;6.142;2022-12-18T13:55:20;-2.90;99.90
21637;DHT22;10980;49.596;6.142;2022-12-18T13:58:43;-2.90;99.90
21637;DHT22;10980;49.596;6.142;2022-12-18T14:02:17;-2.90;99.90
21637;DHT22;10980;49.596;6.142;2022-12-18T14:06:15;-2.90;99.90
21637;DHT22;10980;49.596;6.142;2022-12-18T14:09:55;-3.00;99.90
21637;DHT22;10980;49.596;6.142;2022-12-18T14:13:41;-3.10;99.90
21637;DHT22;10980;49.596;6.142;2022-12-18T14:17:11;-3.00;99.90
21637;DHT22;10980;49.596;6.142;2022-12-18T14:20:39;-3.00;99.90
21637;DHT22;10980;49.596;6.142;2022-12-18T14:24:20;-3.10;99.90
21637;DHT22;10980;49.596;6.142;2022-12-18T14:27:45;-3.00;99.90
21637;DHT22;10980;49.596;6.142;2022-12-18T14:31:30;-3.10;99.90
21637;DHT22;10980;49.596;6.142;2022-12-18T14:34:56;-3.10;99.90
21637;DHT22;10980;49.596;6.142;2022-12-18T14:38:28;-3.10;99.90
21637;DHT22;10980;49.596;6.142;2022-12-18T14:42:00;-3.00;99.90
21637;DHT22;10980;49.596;6.142;2022-12-18T14:45:44;-3.20;99.90
21637;DHT22;10980;49.596;6.142;2022-12-18T14:52:50;-3.20;99.90
21637;DHT22;10980;49.596;6.142;2022-12-18T14:56:21;-3.20;99.90
21637;DHT22;10980;49.596;6.142;2022-12-18T14:59:45;-3.20;99.90
21637;DHT22;10980;49.596;6.142;2022-12-18T15:03:18;-3.30;99.90
21637;DHT22;10980;49.596;6.142;2022-12-18T15:06:48;-3.30;99.90
21637;DHT22;10980;49.596;6.142;2022-12-18T15:10:26;-3.30;99.90
21637;DHT22;10980;49.596;6.142;2022-12-18T15:13:50;-3.30;99.90
21637;DHT22;10980;49.596;6.142;2022-12-18T15:17:21;-3.30;99.90
21637;DHT22;10980;49.596;6.142;2022-12-18T15:20:52;-3.40;99.90
21637;DHT22;10980;49.596;6.142;2022-12-18T15:24:26;-3.50;99.90
21637;DHT22;10980;49.596;6.142;2022-12-18T15:27:52;-3.50;99.90
21637;DHT22;10980;49.596;6.142;2022-12-18T15:34:38;-3.60;99.90
21637;DHT22;10980;49.596;6.142;2022-12-18T15:38:03;-3.60;99.90
21637;DHT22;10980;49.596;6.142;2022-12-18T15:41:26;-3.50;99.90
21637;DHT22;10980;49.596;6.142;2022-12-18T15:44:48;-3.60;99.90
21637;DHT22;10980;49.596;6.142;2022-12-18T15:48:22;-3.60;99.90
21637;DHT22;10980;49.596;6.142;2022-12-18T15:51:57;-3.50;99.90
21637;DHT22;10980;49.596;6.142;2022-12-18T15:55:25;-3.50;99.90
21637;DHT22;10980;49.596;6.142;2022-12-18T15:59:15;-3.50;99.90
21637;DHT22;10980;49.596;6.142;2022-12-18T16:02:38;-3.50;99.90
21637;DHT22;10980;49.596;6.142;2022-12-18T16:06:01;-3.50;99.90
21637;DHT22;10980;49.596;6.142;2022-12-18T16:09:25;-3.40;99.90
21637;DHT22;10980;49.596;6.142;2022-12-18T16:12:47;-3.40;99.90
21637;DHT22;10980;49.596;6.142;2022-12-18T16:16:09;-3.30;99.90
21637;DHT22;10980;49.596;6.142;2022-12-18T16:19:33;-3.30;99.90
21637;DHT22;10980;49.596;6.142;2022-12-18T16:22:55;-3.30;99.90
21637;DHT22;10980;49.596;6.142;2022-12-18T16:26:17;-3.30;99.90
21637;DHT22;10980;49.596;6.142;2022-12-18T16:29:39;-3.30;99.90
21637;DHT22;10980;49.596;6.142;2022-12-18T16:33:00;-3.40;99.90
21637;DHT22;10980;49.596;6.142;2022-12-18T16:36:22;-3.40;99.90
21637;DHT22;10980;49.596;6.142;2022-12-18T16:39:44;-3.30;99.90
21637;DHT22;10980;49.596;6.142;2022-12-18T16:43:06;-3.30;99.90
21637;DHT22;10980;49.596;6.142;2022-12-18T16:46:29;-3.30;99.90
21637;DHT22;10980;49.596;6.142;2022-12-18T16:49:52;-3.30;99.90
21637;DHT22;10980;49.596;6.142;2022-12-18T16:53:16;-3.10;99.90
21637;DHT22;10980;49.596;6.142;2022-12-18T16:56:39;-3.10;99.90
21637;DHT22;10980;49.596;6.142;2022-12-18T17:00:03;-3.10;99.90
21637;DHT22;10980;49.596;6.142;2022-12-18T17:03:28;-3.00;99.90
21637;DHT22;10980;49.596;6.142;2022-12-18T17:06:58;-2.90;99.90
21637;DHT22;10980;49.596;6.142;2022-12-18T17:10:19;-2.90;99.90
21637;DHT22;10980;49.596;6.142;2022-12-18T17:13:41;-2.90;99.90
21637;DHT22;10980;49.596;6.142;2022-12-18T17:17:09;-2.80;99.90
21637;DHT22;10980;49.596;6.142;2022-12-18T17:20:46;-2.80;99.90
21637;DHT22;10980;49.596;6.142;2022-12-18T17:24:15;-2.80;99.90
21637;DHT22;10980;49.596;6.142;2022-12-18T17:27:43;-2.80;99.90
21637;DHT22;10980;49.596;6.142;2022-12-18T17:31:13;-2.70;99.90
21637;DHT22;10980;49.596;6.142;2022-12-18T17:34:40;-2.70;99.90
21637;DHT22;10980;49.596;6.142;2022-12-18T17:38:03;-2.60;99.90
21637;DHT22;10980;49.596;6.142;2022-12-18T17:41:30;-2.60;99.90
21637;DHT22;10980;49.596;6.142;2022-12-18T17:44:52;-2.60;99.90
21637;DHT22;10980;49.596;6.142;2022-12-18T17:48:16;-2.50;99.90
21637;DHT22;10980;49.596;6.142;2022-12-18T17:51:40;-2.40;99.90
21637;DHT22;10980;49.596;6.142;2022-12-18T17:55:03;-2.30;99.90
21637;DHT22;10980;49.596;6.142;2022-12-18T17:58:29;-2.20;99.90
21637;DHT22;10980;49.596;6.142;2022-12-18T18:01:55;-2.20;99.90
21637;DHT22;10980;49.596;6.142;2022-12-18T18:05:18;-2.20;99.90
21637;DHT22;10980;49.596;6.142;2022-12-18T18:08:43;-2.10;99.90
21637;DHT22;10980;49.596;6.142;2022-12-18T18:12:06;-2.20;99.90
21637;DHT22;10980;49.596;6.142;2022-12-18T18:15:55;-2.10;99.90
21637;DHT22;10980;49.596;6.142;2022-12-18T18:19:22;-2.10;99.90
21637;DHT22;10980;49.596;6.142;2022-12-18T18:22:44;-2.00;99.90
21637;DHT22;10980;49.596;6.142;2022-12-18T18:26:11;-2.10;99.90
21637;DHT22;10980;49.596;6.142;2022-12-18T18:29:33;-2.00;99.90
21637;DHT22;10980;49.596;6.142;2022-12-18T18:33:05;-2.00;99.90
21637;DHT22;10980;49.596;6.142;2022-12-18T18:36:32;-2.00;99.90
21637;DHT22;10980;49.596;6.142;2022-12-18T18:39:55;-1.90;99.90
21637;DHT22;10980;49.596;6.142;2022-12-18T18:43:19;-1.80;99.90
21637;DHT22;10980;49.596;6.142;2022-12-18T18:46:41;-1.80;99.90
21637;DHT22;10980;49.596;6.142;2022-12-18T18:50:09;-1.90;99.90
21637;DHT22;10980;49.596;6.142;2022-12-18T18:53:37;-1.80;99.90
21637;DHT22;10980;49.596;6.142;2022-12-18T18:57:02;-1.90;99.90
21637;DHT22;10980;49.596;6.142;2022-12-18T19:00:41;-1.80;99.90
21637;DHT22;10980;49.596;6.142;2022-12-18T19:04:03;-1.90;99.90
21637;DHT22;10980;49.596;6.142;2022-12-18T19:07:27;-2.00;99.90
21637;DHT22;10980;49.596;6.142;2022-12-18T19:10:56;-1.90;99.90
21637;DHT22;10980;49.596;6.142;2022-12-18T19:14:22;-1.90;99.90
21637;DHT22;10980;49.596;6.142;2022-12-18T19:17:44;-1.90;99.90
21637;DHT22;10980;49.596;6.142;2022-12-18T19:21:09;-1.90;99.90
21637;DHT22;10980;49.596;6.142;2022-12-18T19:24:44;-2.00;99.90
21637;DHT22;10980;49.596;6.142;2022-12-18T19:28:07;-1.90;99.90
21637;DHT22;10980;49.596;6.142;2022-12-18T19:31:42;-1.90;99.90
21637;DHT22;10980;49.596;6.142;2022-12-18T19:35:06;-1.90;99.90
21637;DHT22;10980;49.596;6.142;2022-12-18T19:38:28;-1.90;99.90
21637;DHT22;10980;49.596;6.142;2022-12-18T19:41:52;-2.00;99.90
21637;DHT22;10980;49.596;6.142;2022-12-18T19:45:16;-1.90;99.90
21637;DHT22;10980;49.596;6.142;2022-12-18T19:48:41;-1.90;99.90
21637;DHT22;10980;49.596;6.142;2022-12-18T19:52:08;-1.80;99.90
21637;DHT22;10980;49.596;6.142;2022-12-18T19:55:40;-1.70;99.90
21637;DHT22;10980;49.596;6.142;2022-12-18T19:59:08;-1.60;99.90
21637;DHT22;10980;49.596;6.142;2022-12-18T20:02:32;-1.50;99.90
21637;DHT22;10980;49.596;6.142;2022-12-18T20:09:37;-1.50;99.90
21637;DHT22;10980;49.596;6.142;2022-12-18T20:13:08;-1.50;99.90
21637;DHT22;10980;49.596;6.142;2022-12-18T20:16:37;-1.50;99.90
21637;DHT22;10980;49.596;6.142;2022-12-18T20:19:59;-1.40;99.90
21637;DHT22;10980;49.596;6.142;2022-12-18T20:23:24;-1.40;99.90
21637;DHT22;10980;49.596;6.142;2022-12-18T20:26:51;-1.30;99.90
21637;DHT22;10980;49.596;6.142;2022-12-18T20:30:21;-1.30;99.90
21637;DHT22;10980;49.596;6.142;2022-12-18T20:33:43;-1.30;99.90
21637;DHT22;10980;49.596;6.142;2022-12-18T20:37:09;-1.40;99.90
21637;DHT22;10980;49.596;6.142;2022-12-18T20:40:33;-1.30;99.90
21637;DHT22;10980;49.596;6.142;2022-12-18T20:43:57;-1.20;99.90
21637;DHT22;10980;49.596;6.142;2022-12-18T20:47:20;-1.10;99.90
21637;DHT22;10980;49.596;6.142;2022-12-18T20:51:03;-1.00;99.90
21637;DHT22;10980;49.596;6.142;2022-12-18T20:54:28;-1.00;99.90
21637;DHT22;10980;49.596;6.142;2022-12-18T20:57:57;-0.90;99.90
21637;DHT22;10980;49.596;6.142;2022-12-18T21:01:28;-0.90;99.90
21637;DHT22;10980;49.596;6.142;2022-12-18T21:04:52;-0.90;99.90
21637;DHT22;10980;49.596;6.142;2022-12-18T21:08:19;-0.90;99.90
21637;DHT22;10980;49.596;6.142;2022-12-18T21:11:41;-0.90;99.90
21637;DHT22;10980;49.596;6.142;2022-12-18T21:15:24;-0.80;99.90
21637;DHT22;10980;49.596;6.142;2022-12-18T21:18:51;-0.80;99.90
21637;DHT22;10980;49.596;6.142;2022-12-18T21:22:15;-0.80;99.90
21637;DHT22;10980;49.596;6.142;2022-12-18T21:25:37;-0.80;99.90
21637;DHT22;10980;49.596;6.142;2022-12-18T21:29:03;-0.70;99.90
21637;DHT22;10980;49.596;6.142;2022-12-18T21:32:26;-0.60;99.90
21637;DHT22;10980;49.596;6.142;2022-12-18T21:35:54;-0.50;99.90
21637;DHT22;10980;49.596;6.142;2022-12-18T21:39:22;-0.50;99.90
21637;DHT22;10980;49.596;6.142;2022-12-18T21:42:47;-0.40;99.90
21637;DHT22;10980;49.596;6.142;2022-12-18T21:46:35;-0.40;99.90
21637;DHT22;10980;49.596;6.142;2022-12-18T21:50:00;-0.40;99.90
21637;DHT22;10980;49.596;6.142;2022-12-18T21:53:31;-0.50;99.90
21637;DHT22;10980;49.596;6.142;2022-12-18T21:57:00;-0.50;99.90
21637;DHT22;10980;49.596;6.142;2022-12-18T22:00:26;-0.40;99.90
21637;DHT22;10980;49.596;6.142;2022-12-18T22:03:59;-0.50;99.90
21637;DHT22;10980;49.596;6.142;2022-12-18T22:07:22;-0.50;99.90
21637;DHT22;10980;49.596;6.142;2022-12-18T22:10:48;-0.50;99.90
21637;DHT22;10980;49.596;6.142;2022-12-18T22:14:10;-0.40;99.90
21637;DHT22;10980;49.596;6.142;2022-12-18T22:17:40;-0.40;99.90
21637;DHT22;10980;49.596;6.142;2022-12-18T22:21:03;-0.40;99.90
21637;DHT22;10980;49.596;6.142;2022-12-18T22:24:26;-0.30;99.90
21637;DHT22;10980;49.596;6.142;2022-12-18T22:27:50;-0.30;99.90
21637;DHT22;10980;49.596;6.142;2022-12-18T22:31:31;-0.40;99.90
21637;DHT22;10980;49.596;6.142;2022-12-18T22:34:59;-0.40;99.90
21637;DHT22;10980;49.596;6.142;2022-12-18T22:38:32;-0.40;99.90
21637;DHT22;10980;49.596;6.142;2022-12-18T22:42:00;-0.40;99.90
21637;DHT22;10980;49.596;6.142;2022-12-18T22:45:23;-0.40;99.90
21637;DHT22;10980;49.596;6.142;2022-12-18T22:48:46;-0.40;99.90
21637;DHT22;10980;49.596;6.142;2022-12-18T22:52:08;-0.40;99.90
21637;DHT22;10980;49.596;6.142;2022-12-18T22:55:43;-0.30;99.90
21637;DHT22;10980;49.596;6.142;2022-12-18T22:59:07;-0.30;99.90
21637;DHT22;10980;49.596;6.142;2022-12-18T23:02:35;-0.30;99.90
21637;DHT22;10980;49.596;6.142;2022-12-18T23:06:08;-0.30;99.90
21637;DHT22;10980;49.596;6.142;2022-12-18T23:09:33;-0.30;99.90
21637;DHT22;10980;49.596;6.142;2022-12-18T23:13:11;-0.30;99.90
21637;DHT22;10980;49.596;6.142;2022-12-18T23:16:49;-0.20;99.90
21637;DHT22;10980;49.596;6.142;2022-12-18T23:20:13;-0.20;99.90
21637;DHT22;10980;49.596;6.142;2022-12-18T23:23:43;-0.10;99.90
21637;DHT22;10980;49.596;6.142;2022-12-18T23:27:06;-0.10;99.90
21637;DHT22;10980;49.596;6.142;2022-12-18T23:30:39;0.00;99.90
21637;DHT22;10980;49.596;6.142;2022-12-18T23:34:04;0.00;99.90